createdAt,value
2022-10-23T00:00:28.175Z,99.99
2022-10-23T00:01:28.110Z,99.99
2022-10-23T00:02:28.104Z,99.99
2022-10-23T00:03:27.981Z,99.99
2022-10-23T00:04:27.943Z,99.99
2022-10-23T00:05:27.872Z,99.99
2022-10-23T00:06:27.835Z,99.99
2022-10-23T00:07:27.845Z,99.99
2022-10-23T00:08:27.716Z,99.99
2022-10-23T00:09:27.662Z,99.99
2022-10-23T00:10:27.622Z,99.99
2022-10-23T00:11:27.556Z,99.99
2022-10-23T00:12:27.503Z,99.99
2022-10-23T00:13:27.452Z,99.99
2022-10-23T00:14:27.395Z,99.99
2022-10-23T00:15:27.374Z,99.99
2022-10-23T00:16:27.333Z,99.99
2022-10-23T00:17:27.243Z,99.99
2022-10-23T00:18:27.183Z,99.99
2022-10-23T00:19:27.146Z,99.99
2022-10-23T00:20:27.077Z,99.99
2022-10-23T00:21:27.032Z,99.99
2022-10-23T00:22:26.972Z,99.99
2022-10-23T00:23:26.936Z,99.99
2022-10-23T00:24:26.871Z,99.99
2022-10-23T00:25:26.837Z,99.99
2022-10-23T00:26:26.759Z,99.99
2022-10-23T00:27:26.706Z,99.99
2022-10-23T00:28:26.654Z,99.99
2022-10-23T00:29:26.604Z,99.99
2022-10-23T00:30:26.562Z,99.99
2022-10-23T00:31:26.500Z,99.99
2022-10-23T00:32:26.466Z,99.99
2022-10-23T00:33:26.389Z,99.99
2022-10-23T00:34:26.352Z,99.99
2022-10-23T00:35:26.314Z,99.99
2022-10-23T00:36:26.231Z,99.99
2022-10-23T00:37:26.177Z,99.99
2022-10-23T00:38:26.129Z,99.99
2022-10-23T00:39:26.074Z,99.99
2022-10-23T00:40:26.069Z,99.99
2022-10-23T00:41:25.988Z,99.99
2022-10-23T00:42:25.917Z,99.99
2022-10-23T00:43:25.863Z,99.99
2022-10-23T00:44:25.809Z,99.99
2022-10-23T00:45:25.756Z,99.99
2022-10-23T00:46:25.713Z,99.99
2022-10-23T00:47:25.694Z,99.99
2022-10-23T00:48:25.597Z,99.99
2022-10-23T00:49:25.546Z,99.99
2022-10-23T00:50:25.494Z,99.99
2022-10-23T00:51:25.456Z,99.99
2022-10-23T00:52:25.398Z,99.99
2022-10-23T00:53:25.333Z,99.99
2022-10-23T00:54:25.650Z,99.99
2022-10-23T00:55:25.224Z,99.99
2022-10-23T00:56:25.185Z,99.99
2022-10-23T00:57:25.158Z,99.99
2022-10-23T00:58:25.064Z,99.99
2022-10-23T00:59:25.057Z,99.99
2022-10-23T01:00:24.960Z,99.99
2022-10-23T01:01:25.144Z,99.99
2022-10-23T01:02:24.916Z,99.99
2022-10-23T01:03:24.799Z,99.99
2022-10-23T01:04:24.748Z,99.99
2022-10-23T01:05:24.693Z,99.99
2022-10-23T01:06:24.638Z,99.99
2022-10-23T01:07:24.601Z,99.99
2022-10-23T01:08:24.535Z,99.99
2022-10-23T01:09:24.483Z,99.99
2022-10-23T01:10:24.427Z,99.99
2022-10-23T01:11:24.380Z,99.99
2022-10-23T01:12:24.337Z,99.99
2022-10-23T01:13:24.269Z,99.99
2022-10-23T01:14:24.214Z,99.99
2022-10-23T01:15:24.162Z,99.99
2022-10-23T01:16:24.113Z,99.99
2022-10-23T01:17:24.075Z,99.99
2022-10-23T01:18:24.004Z,99.99
2022-10-23T01:19:23.946Z,99.99
2022-10-23T01:20:23.898Z,99.99
2022-10-23T01:21:23.844Z,99.99
2022-10-23T01:23:23.738Z,99.99
2022-10-23T01:24:23.691Z,99.99
2022-10-23T01:25:23.631Z,99.99
2022-10-23T01:26:23.577Z,99.99
2022-10-23T01:27:23.542Z,99.99
2022-10-23T01:28:23.470Z,99.99
2022-10-23T01:29:23.420Z,99.99
2022-10-23T01:30:23.380Z,99.99
2022-10-23T01:31:23.310Z,99.99
2022-10-23T01:32:23.262Z,99.99
2022-10-23T01:33:23.219Z,99.99
2022-10-23T01:34:23.151Z,99.99
2022-10-23T01:35:23.113Z,99.99
2022-10-23T01:36:23.063Z,99.99
2022-10-23T01:37:22.991Z,99.99
2022-10-23T01:38:22.952Z,99.99
2022-10-23T01:39:22.886Z,99.99
2022-10-23T01:40:22.840Z,99.99
2022-10-23T01:41:22.793Z,99.99
2022-10-23T01:42:22.725Z,99.99
2022-10-23T01:43:22.684Z,99.99
2022-10-23T01:44:22.617Z,99.99
2022-10-23T01:45:22.566Z,99.99
2022-10-23T01:46:22.510Z,99.99
2022-10-23T01:47:22.493Z,99.99
2022-10-23T01:48:22.418Z,99.99
2022-10-23T01:49:22.352Z,99.99
2022-10-23T01:50:22.300Z,99.99
2022-10-23T01:51:22.246Z,99.99
2022-10-23T01:52:22.190Z,99.99
2022-10-23T01:53:22.158Z,99.99
2022-10-23T01:54:22.086Z,99.99
2022-10-23T01:55:22.028Z,99.99
2022-10-23T01:56:21.976Z,99.99
2022-10-23T01:57:21.925Z,99.99
2022-10-23T01:58:21.874Z,99.99
2022-10-23T01:59:21.834Z,99.99
2022-10-23T02:00:21.762Z,99.99
2022-10-23T02:01:21.834Z,99.99
2022-10-23T02:02:21.675Z,99.99
2022-10-23T02:03:21.604Z,99.99
2022-10-23T02:04:21.570Z,99.99
2022-10-23T02:05:21.499Z,99.99
2022-10-23T02:06:21.443Z,99.99
2022-10-23T02:07:21.404Z,99.99
2022-10-23T02:08:21.351Z,99.99
2022-10-23T02:09:21.281Z,99.99
2022-10-23T02:10:21.230Z,99.99
2022-10-23T02:11:21.178Z,99.99
2022-10-23T02:12:21.143Z,99.99
2022-10-23T02:13:21.082Z,99.99
2022-10-23T02:14:21.014Z,99.99
2022-10-23T02:15:20.959Z,99.99
2022-10-23T02:16:20.922Z,99.99
2022-10-23T02:17:20.854Z,99.99
2022-10-23T02:18:20.802Z,99.99
2022-10-23T02:19:20.745Z,99.99
2022-10-23T02:20:20.708Z,99.99
2022-10-23T02:21:20.658Z,99.99
2022-10-23T02:22:20.584Z,99.99
2022-10-23T02:23:20.544Z,99.99
2022-10-23T02:24:20.484Z,99.99
2022-10-23T02:25:20.426Z,99.99
2022-10-23T02:26:20.389Z,99.99
2022-10-23T02:27:20.342Z,99.99
2022-10-23T02:28:20.268Z,99.99
2022-10-23T02:29:20.212Z,99.99
2022-10-23T02:30:20.163Z,99.99
2022-10-23T02:31:20.121Z,99.99
2022-10-23T02:32:20.054Z,99.99
2022-10-23T02:33:20.000Z,99.99
2022-10-23T02:34:19.942Z,99.99
2022-10-23T02:35:19.893Z,99.99
2022-10-23T02:36:19.851Z,99.99
2022-10-23T02:38:19.756Z,99.99
2022-10-23T02:39:19.691Z,99.99
2022-10-23T02:40:19.623Z,99.99
2022-10-23T02:41:19.570Z,99.99
2022-10-23T02:42:19.515Z,99.99
2022-10-23T02:43:19.479Z,99.99
2022-10-23T02:44:19.424Z,99.99
2022-10-23T02:45:19.356Z,99.99
2022-10-23T02:46:19.305Z,99.99
2022-10-23T02:47:19.249Z,99.99
2022-10-23T02:48:19.209Z,99.99
2022-10-23T02:49:19.145Z,99.99
2022-10-23T02:50:19.853Z,99.99
2022-10-23T02:51:19.038Z,99.99
2022-10-23T02:52:18.999Z,99.99
2022-10-23T02:53:18.945Z,99.99
2022-10-23T02:54:18.888Z,99.99
2022-10-23T02:55:18.835Z,99.99
2022-10-23T02:56:27.932Z,99.99
2022-10-23T02:57:18.716Z,99.99
2022-10-23T02:58:18.676Z,99.99
2022-10-23T02:59:18.606Z,99.99
2022-10-23T03:00:18.642Z,99.99
2022-10-23T03:01:18.576Z,99.99
2022-10-23T03:02:18.536Z,99.99
2022-10-23T03:03:18.394Z,99.99
2022-10-23T03:04:18.352Z,99.99
2022-10-23T03:05:18.465Z,99.99
2022-10-23T03:06:18.253Z,99.99
2022-10-23T03:07:18.197Z,99.99
2022-10-23T03:08:18.125Z,99.99
2022-10-23T03:09:18.072Z,99.99
2022-10-23T03:10:18.020Z,99.99
2022-10-23T03:11:17.965Z,99.99
2022-10-23T03:12:17.914Z,99.99
2022-10-23T03:13:17.874Z,99.99
2022-10-23T03:14:17.803Z,99.99
2022-10-23T03:15:17.753Z,99.99
2022-10-23T03:16:17.697Z,99.99
2022-10-23T03:17:17.644Z,99.99
2022-10-23T03:18:17.633Z,99.99
2022-10-23T03:19:17.546Z,99.99
2022-10-23T03:20:17.483Z,99.99
2022-10-23T03:21:17.444Z,99.99
2022-10-23T03:22:17.378Z,99.99
2022-10-23T03:23:17.326Z,99.99
2022-10-23T03:24:17.270Z,99.99
2022-10-23T03:25:17.221Z,99.99
2022-10-23T03:26:17.198Z,99.99
2022-10-23T03:27:17.183Z,99.99
2022-10-23T03:28:17.058Z,99.99
2022-10-23T03:29:17.005Z,99.99
2022-10-23T03:30:16.951Z,99.99
2022-10-23T03:31:16.898Z,99.99
2022-10-23T03:32:16.862Z,99.99
2022-10-23T03:33:16.805Z,99.99
2022-10-23T03:34:16.736Z,99.99
2022-10-23T03:35:16.683Z,99.99
2022-10-23T03:36:16.631Z,99.99
2022-10-23T03:37:16.577Z,99.99
2022-10-23T03:38:16.523Z,99.99
2022-10-23T03:39:16.966Z,99.99
2022-10-23T03:40:16.415Z,99.99
2022-10-23T03:41:16.381Z,99.99
2022-10-23T03:42:16.310Z,99.99
2022-10-23T03:43:16.271Z,99.99
2022-10-23T03:44:16.206Z,99.99
2022-10-23T03:45:16.150Z,99.99
2022-10-23T03:46:16.096Z,99.99
2022-10-23T03:47:16.081Z,99.99
2022-10-23T03:48:16.002Z,99.99
2022-10-23T03:49:15.938Z,99.99
2022-10-23T03:50:15.883Z,99.99
2022-10-23T03:51:15.829Z,99.99
2022-10-23T03:52:15.815Z,99.99
2022-10-23T03:53:15.740Z,99.99
2022-10-23T03:54:15.670Z,99.99
2022-10-23T03:55:15.614Z,99.99
2022-10-23T03:56:15.565Z,99.99
2022-10-23T03:57:15.512Z,99.99
2022-10-23T03:58:15.475Z,99.99
2022-10-23T03:59:15.405Z,99.99
2022-10-23T04:00:15.350Z,99.99
2022-10-23T04:01:15.348Z,99.99
2022-10-23T04:02:15.284Z,99.99
2022-10-23T04:03:15.200Z,99.99
2022-10-23T04:04:15.167Z,99.99
2022-10-23T04:05:15.085Z,99.99
2022-10-23T04:06:15.029Z,99.99
2022-10-23T04:07:14.993Z,99.99
2022-10-23T04:08:17.704Z,99.99
2022-10-23T04:09:14.877Z,99.99
2022-10-23T04:10:14.832Z,99.99
2022-10-23T04:11:14.767Z,99.99
2022-10-23T04:12:14.712Z,99.99
2022-10-23T04:13:14.677Z,99.99
2022-10-23T04:14:14.622Z,99.99
2022-10-23T04:15:14.575Z,99.99
2022-10-23T04:16:14.500Z,99.99
2022-10-23T04:17:14.463Z,99.99
2022-10-23T04:18:14.410Z,99.99
2022-10-23T04:19:14.337Z,99.99
2022-10-23T04:20:14.303Z,99.99
2022-10-23T04:21:14.231Z,99.99
2022-10-23T04:22:14.181Z,99.99
2022-10-23T04:23:14.145Z,99.99
2022-10-23T04:24:14.073Z,99.99
2022-10-23T04:25:14.020Z,99.99
2022-10-23T04:26:13.994Z,99.99
2022-10-23T04:27:13.914Z,99.99
2022-10-23T04:28:13.861Z,99.99
2022-10-23T04:29:13.805Z,99.99
2022-10-23T04:30:13.754Z,99.99
2022-10-23T04:31:13.699Z,99.99
2022-10-23T04:32:13.684Z,99.99
2022-10-23T04:33:13.597Z,99.99
2022-10-23T04:34:13.546Z,99.99
2022-10-23T04:35:13.488Z,99.99
2022-10-23T04:36:13.433Z,99.99
2022-10-23T04:37:13.396Z,99.99
2022-10-23T04:38:13.325Z,99.99
2022-10-23T04:39:13.287Z,99.99
2022-10-23T04:40:13.232Z,99.99
2022-10-23T04:41:13.164Z,99.99
2022-10-23T04:42:13.148Z,99.99
2022-10-23T04:43:13.056Z,99.99
2022-10-23T04:44:13.017Z,99.99
2022-10-23T04:45:12.964Z,99.99
2022-10-23T04:46:12.896Z,99.99
2022-10-23T04:47:12.862Z,99.99
2022-10-23T04:48:12.791Z,99.99
2022-10-23T04:49:12.751Z,99.99
2022-10-23T04:50:12.683Z,99.99
2022-10-23T04:51:12.629Z,99.99
2022-10-23T04:52:12.592Z,99.99
2022-10-23T04:53:12.525Z,99.99
2022-10-23T04:54:12.467Z,99.99
2022-10-23T04:55:12.415Z,99.99
2022-10-23T04:56:12.375Z,99.99
2022-10-23T04:57:12.313Z,99.99
2022-10-23T04:58:12.270Z,99.99
2022-10-23T04:59:12.202Z,99.99
2022-10-23T05:00:12.146Z,99.99
2022-10-23T05:01:12.261Z,99.99
2022-10-23T05:02:12.053Z,99.99
2022-10-23T05:03:11.986Z,99.99
2022-10-23T05:04:11.941Z,99.99
2022-10-23T05:05:11.879Z,99.99
2022-10-23T05:06:11.826Z,99.99
2022-10-23T05:07:11.842Z,99.99
2022-10-23T05:08:15.535Z,99.99
2022-10-23T05:09:11.677Z,99.99
2022-10-23T05:10:11.610Z,99.99
2022-10-23T05:11:11.558Z,99.99
2022-10-23T05:12:11.522Z,99.99
2022-10-23T05:13:11.450Z,99.99
2022-10-23T05:14:11.395Z,99.99
2022-10-23T05:15:11.342Z,99.99
2022-10-23T05:16:11.288Z,99.99
2022-10-23T05:17:11.338Z,99.99
2022-10-23T05:18:11.185Z,99.99
2022-10-23T05:19:11.125Z,99.99
2022-10-23T05:20:11.074Z,99.99
2022-10-23T05:21:11.019Z,99.99
2022-10-23T05:22:10.980Z,99.99
2022-10-23T05:23:10.911Z,99.99
2022-10-23T05:24:10.858Z,99.99
2022-10-23T05:25:10.809Z,99.99
2022-10-23T05:26:10.751Z,99.99
2022-10-23T05:27:10.714Z,99.99
2022-10-23T05:28:10.648Z,99.99
2022-10-23T05:29:10.593Z,99.99
2022-10-23T05:30:10.543Z,99.99
2022-10-23T05:31:10.489Z,99.99
2022-10-23T05:32:10.527Z,99.99
2022-10-23T05:33:10.379Z,99.99
2022-10-23T05:34:13.302Z,99.99
2022-10-23T05:35:10.269Z,99.99
2022-10-23T05:36:10.217Z,99.99
2022-10-23T05:37:10.193Z,99.99
2022-10-23T05:38:10.123Z,99.99
2022-10-23T05:39:10.057Z,99.99
2022-10-23T05:40:10.007Z,99.99
2022-10-23T05:41:09.951Z,99.99
2022-10-23T05:42:09.898Z,99.99
2022-10-23T05:43:09.854Z,99.99
2022-10-23T05:44:09.788Z,99.99
2022-10-23T05:45:09.735Z,99.99
2022-10-23T05:46:09.683Z,99.99
2022-10-23T05:47:09.630Z,99.99
2022-10-23T05:48:16.886Z,99.99
2022-10-23T05:49:09.524Z,99.99
2022-10-23T05:50:09.481Z,99.99
2022-10-23T05:51:09.416Z,99.99
2022-10-23T05:52:09.361Z,99.99
2022-10-23T05:53:09.323Z,99.99
2022-10-23T05:54:09.268Z,99.99
2022-10-23T05:55:09.203Z,99.99
2022-10-23T05:56:09.157Z,99.99
2022-10-23T05:57:09.191Z,99.99
2022-10-23T05:58:09.039Z,99.99
2022-10-23T05:59:09.002Z,99.99
2022-10-23T06:00:08.935Z,99.99
2022-10-23T06:01:09.015Z,99.99
2022-10-23T06:02:08.875Z,99.99
2022-10-23T06:03:08.791Z,99.99
2022-10-23T06:04:08.733Z,99.99
2022-10-23T06:05:08.799Z,99.99
2022-10-23T06:06:08.613Z,99.99
2022-10-23T06:07:08.560Z,99.99
2022-10-23T06:08:08.507Z,99.99
2022-10-23T06:09:08.469Z,99.99
2022-10-23T06:10:08.415Z,99.99
2022-10-23T06:11:08.350Z,99.99
2022-10-23T06:12:08.294Z,99.99
2022-10-23T06:13:08.242Z,99.99
2022-10-23T06:14:08.186Z,99.99
2022-10-23T06:15:08.149Z,99.99
2022-10-23T06:16:09.721Z,99.99
2022-10-23T06:17:08.031Z,99.99
2022-10-23T06:18:07.972Z,99.99
2022-10-23T06:19:07.922Z,99.99
2022-10-23T06:20:07.887Z,99.99
2022-10-23T06:21:07.816Z,99.99
2022-10-23T06:22:07.817Z,99.99
2022-10-23T06:23:07.707Z,99.99
2022-10-23T06:24:07.659Z,99.99
2022-10-23T06:25:07.617Z,99.99
2022-10-23T06:26:07.548Z,99.99
2022-10-23T06:27:07.503Z,99.99
2022-10-23T06:28:07.458Z,99.99
2022-10-23T06:29:07.404Z,99.99
2022-10-23T06:30:07.341Z,99.99
2022-10-23T06:31:07.299Z,99.99
2022-10-23T06:32:07.232Z,99.99
2022-10-23T06:33:07.179Z,99.99
2022-10-23T06:34:07.131Z,99.99
2022-10-23T06:35:07.085Z,99.99
2022-10-23T06:36:07.019Z,99.99
2022-10-23T06:37:06.966Z,99.99
2022-10-23T06:38:06.912Z,99.99
2022-10-23T06:39:06.873Z,99.99
2022-10-23T06:40:06.813Z,99.99
2022-10-23T06:41:06.755Z,99.99
2022-10-23T06:42:06.703Z,99.99
2022-10-23T06:43:06.660Z,99.99
2022-10-23T06:44:06.615Z,99.99
2022-10-23T06:45:07.354Z,99.99
2022-10-23T06:46:06.493Z,99.99
2022-10-23T06:47:06.544Z,99.99
2022-10-23T06:48:06.385Z,99.99
2022-10-23T06:49:06.344Z,99.99
2022-10-23T06:50:06.281Z,99.99
2022-10-23T06:51:06.230Z,99.99
2022-10-23T06:52:11.069Z,99.99
2022-10-23T06:53:06.135Z,99.99
2022-10-23T06:54:06.069Z,99.99
2022-10-23T06:55:06.030Z,99.99
2022-10-23T06:56:05.965Z,99.99
2022-10-23T06:57:05.914Z,99.99
2022-10-23T06:58:05.883Z,99.99
2022-10-23T06:59:05.809Z,99.99
2022-10-23T07:00:05.774Z,99.99
2022-10-23T07:01:05.818Z,99.99
2022-10-23T07:02:05.673Z,99.99
2022-10-23T07:03:05.607Z,99.99
2022-10-23T07:04:05.570Z,99.99
2022-10-23T07:05:08.712Z,99.99
2022-10-23T07:06:05.457Z,99.99
2022-10-23T07:07:05.410Z,99.99
2022-10-23T07:08:05.354Z,99.99
2022-10-23T07:09:05.320Z,99.99
2022-10-23T07:10:05.323Z,99.99
2022-10-23T07:11:05.224Z,99.99
2022-10-23T07:12:05.154Z,99.99
2022-10-23T07:13:05.105Z,99.99
2022-10-23T07:14:05.056Z,99.99
2022-10-23T07:15:05.005Z,99.99
2022-10-23T07:16:04.970Z,99.99
2022-10-23T07:17:04.907Z,99.99
2022-10-23T07:18:04.861Z,99.99
2022-10-23T07:19:04.808Z,99.99
2022-10-23T07:20:04.759Z,99.99
2022-10-23T07:21:04.724Z,99.99
2022-10-23T07:22:04.659Z,99.99
2022-10-23T07:23:04.629Z,99.99
2022-10-23T07:24:04.558Z,99.99
2022-10-23T07:25:04.511Z,99.99
2022-10-23T07:26:04.460Z,99.99
2022-10-23T07:27:04.410Z,99.99
2022-10-23T07:28:04.356Z,99.99
2022-10-23T07:29:04.322Z,99.99
2022-10-23T07:30:04.275Z,99.99
2022-10-23T07:31:04.209Z,99.99
2022-10-23T07:32:04.161Z,99.99
2022-10-23T07:33:04.113Z,99.99
2022-10-23T07:34:04.065Z,99.99
2022-10-23T07:35:04.141Z,99.99
2022-10-23T07:36:03.969Z,99.99
2022-10-23T07:37:03.930Z,99.99
2022-10-23T07:38:03.875Z,99.99
2022-10-23T07:39:03.823Z,99.99
2022-10-23T07:40:03.801Z,99.99
2022-10-23T07:41:03.732Z,99.99
2022-10-23T07:42:03.703Z,99.99
2022-10-23T07:43:03.639Z,99.99
2022-10-23T07:44:03.603Z,99.99
2022-10-23T07:45:03.580Z,99.99
2022-10-23T07:46:03.500Z,99.99
2022-10-23T07:47:03.454Z,99.99
2022-10-23T07:48:03.418Z,99.99
2022-10-23T07:49:03.361Z,99.99
2022-10-23T07:50:03.329Z,99.99
2022-10-23T07:51:03.276Z,99.99
2022-10-23T07:53:03.182Z,99.99
2022-10-23T07:54:03.144Z,99.99
2022-10-23T07:55:03.106Z,99.99
2022-10-23T07:56:03.039Z,99.99
2022-10-23T07:57:03.538Z,99.99
2022-10-23T07:58:02.945Z,99.99
2022-10-23T07:59:02.928Z,99.99
2022-10-23T08:00:02.852Z,99.99
2022-10-23T08:01:02.838Z,99.99
2022-10-23T08:02:02.777Z,99.99
2022-10-23T08:03:02.736Z,99.99
2022-10-23T08:04:02.678Z,99.99
2022-10-23T08:05:02.615Z,99.99
2022-10-23T08:06:02.569Z,99.99
2022-10-23T08:07:02.517Z,99.99
2022-10-23T08:08:02.468Z,99.99
2022-10-23T08:09:05.469Z,99.99
2022-10-23T08:10:02.388Z,99.99
2022-10-23T08:11:02.324Z,99.99
2022-10-23T08:12:02.278Z,99.99
2022-10-23T08:13:02.246Z,99.99
2022-10-23T08:14:02.192Z,99.99
2022-10-23T08:15:02.145Z,99.99
2022-10-23T08:16:02.086Z,99.99
2022-10-23T08:18:01.995Z,99.99
2022-10-23T08:19:01.944Z,99.99
2022-10-23T08:20:01.912Z,99.99
2022-10-23T08:21:01.861Z,99.99
2022-10-23T08:22:01.799Z,99.99
2022-10-23T08:23:01.749Z,99.63
2022-10-23T08:24:01.706Z,98.77
2022-10-23T08:25:01.673Z,98.19
2022-10-23T08:26:01.623Z,98.96
2022-10-23T08:27:01.562Z,98.29
2022-10-23T08:28:04.235Z,98.10
2022-10-23T08:29:01.471Z,98.19
2022-10-23T08:30:01.446Z,97.19
2022-10-23T08:31:01.384Z,97.47
2022-10-23T08:32:01.331Z,97.42
2022-10-23T08:33:01.367Z,97.14
2022-10-23T08:34:01.257Z,97.33
2022-10-23T08:35:01.200Z,97.14
2022-10-23T08:36:01.156Z,95.45
2022-10-23T08:37:01.103Z,94.98
2022-10-23T08:38:01.061Z,94.93
2022-10-23T08:39:01.035Z,95.70
2022-10-23T08:40:00.969Z,95.89
2022-10-23T08:41:00.924Z,95.98
2022-10-23T08:42:00.962Z,96.66
2022-10-23T08:43:00.834Z,95.84
2022-10-23T08:44:00.791Z,96.51
2022-10-23T08:45:00.750Z,97.33
2022-10-23T08:46:00.702Z,96.85
2022-10-23T08:47:00.668Z,97.61
2022-10-23T08:48:00.608Z,97.42
2022-10-23T08:49:00.564Z,96.22
2022-10-23T08:50:00.524Z,96.51
2022-10-23T08:51:00.474Z,96.56
2022-10-23T08:52:00.425Z,96.27
2022-10-23T08:53:00.396Z,97.14
2022-10-23T08:54:00.336Z,97.61
2022-10-23T08:55:00.290Z,97.33
2022-10-23T08:56:00.245Z,97.24
2022-10-23T08:57:00.203Z,98.38
2022-10-23T08:58:00.166Z,98.48
2022-10-23T08:59:00.195Z,97.28
2022-10-23T09:00:00.086Z,97.38
2022-10-23T09:01:00.219Z,97.56
2022-10-23T09:02:00.179Z,98.53
2022-10-23T09:02:59.934Z,97.66
2022-10-23T09:03:59.875Z,98.53
2022-10-23T09:04:59.828Z,98.43
2022-10-23T09:05:59.781Z,98.05
2022-10-23T09:06:59.837Z,98.62
2022-10-23T09:07:59.686Z,98.53
2022-10-23T09:08:59.639Z,98.38
2022-10-23T09:09:59.592Z,99.63
2022-10-23T09:10:59.542Z,99.24
2022-10-23T09:11:59.516Z,98.38
2022-10-23T09:12:59.465Z,99.34
2022-10-23T09:13:59.430Z,99.53
2022-10-23T09:14:59.353Z,99.99
2022-10-23T09:15:59.309Z,99.99
2022-10-23T09:16:59.270Z,99.99
2022-10-23T09:17:59.210Z,99.99
2022-10-23T09:18:59.162Z,99.99
2022-10-23T09:19:59.116Z,99.99
2022-10-23T09:20:59.083Z,99.99
2022-10-23T09:21:59.017Z,99.99
2022-10-23T09:22:58.970Z,99.99
2022-10-23T09:23:58.919Z,99.73
2022-10-23T09:24:58.875Z,99.63
2022-10-23T09:25:58.837Z,99.05
2022-10-23T09:26:58.823Z,99.63
2022-10-23T09:28:01.364Z,99.44
2022-10-23T09:28:58.676Z,98.82
2022-10-23T09:29:58.630Z,98.43
2022-10-23T09:30:58.596Z,98.14
2022-10-23T09:31:58.535Z,98.48
2022-10-23T09:32:58.485Z,96.37
2022-10-23T09:33:58.433Z,96.47
2022-10-23T09:34:58.569Z,95.65
2022-10-23T09:35:58.335Z,94.59
2022-10-23T09:36:58.289Z,95.36
2022-10-23T09:37:58.241Z,95.36
2022-10-23T09:38:58.207Z,94.69
2022-10-23T09:39:58.146Z,94.83
2022-10-23T09:40:58.135Z,94.45
2022-10-23T09:41:58.045Z,94.01
2022-10-23T09:42:58.583Z,93.54
2022-10-23T09:43:57.952Z,94.98
2022-10-23T09:44:57.902Z,95.45
2022-10-23T09:45:57.932Z,95.55
2022-10-23T09:46:58.559Z,95.36
2022-10-23T09:47:57.785Z,95.17
2022-10-23T09:48:59.031Z,95.75
2022-10-23T09:49:57.662Z,94.59
2022-10-23T09:50:57.614Z,94.21
2022-10-23T09:51:57.565Z,94.11
2022-10-23T09:52:57.519Z,94.45
2022-10-23T09:53:57.485Z,95.60
2022-10-23T09:54:57.453Z,95.60
2022-10-23T09:55:57.373Z,96.94
2022-10-23T09:56:57.322Z,97.91
2022-10-23T09:57:57.278Z,97.61
2022-10-23T09:58:57.243Z,96.42
2022-10-23T09:59:57.178Z,96.61
2022-10-23T10:00:57.247Z,97.47
2022-10-23T10:01:57.118Z,97.19
2022-10-23T10:02:57.036Z,97.09
2022-10-23T10:03:56.999Z,97.47
2022-10-23T10:04:56.935Z,96.80
2022-10-23T10:05:56.885Z,97.19
2022-10-23T10:06:56.850Z,97.19
2022-10-23T10:07:57.019Z,96.13
2022-10-23T10:08:56.738Z,96.03
2022-10-23T10:09:56.690Z,96.22
2022-10-23T10:10:56.651Z,97.38
2022-10-23T10:11:56.607Z,97.19
2022-10-23T10:12:58.391Z,96.42
2022-10-23T10:13:56.491Z,96.61
2022-10-23T10:14:56.443Z,96.94
2022-10-23T10:15:56.411Z,96.85
2022-10-23T10:16:56.359Z,97.23
2022-10-23T10:17:56.292Z,97.33
2022-10-23T10:18:56.247Z,98.77
2022-10-23T10:19:56.195Z,98.48
2022-10-23T10:20:56.162Z,98.10
2022-10-23T10:21:56.095Z,97.90
2022-10-23T10:22:56.060Z,98.48
2022-10-23T10:23:56.000Z,98.28
2022-10-23T10:24:55.948Z,98.67
2022-10-23T10:25:55.911Z,98.57
2022-10-23T10:26:55.849Z,98.28
2022-10-23T10:27:55.803Z,98.77
2022-10-23T10:28:55.763Z,99.44
2022-10-23T10:29:55.697Z,98.57
2022-10-23T10:30:55.723Z,98.57
2022-10-23T10:31:55.617Z,99.34
2022-10-23T10:32:55.567Z,99.44
2022-10-23T10:33:55.501Z,99.44
2022-10-23T10:34:55.453Z,98.33
2022-10-23T10:35:55.402Z,96.99
2022-10-23T10:36:55.352Z,98.53
2022-10-23T10:37:55.319Z,98.53
2022-10-23T10:38:55.256Z,98.24
2022-10-23T10:39:55.202Z,97.76
2022-10-23T10:40:55.149Z,96.80
2022-10-23T10:41:55.100Z,96.80
2022-10-23T10:42:55.069Z,96.42
2022-10-23T10:43:55.003Z,96.42
2022-10-23T10:44:54.966Z,97.38
2022-10-23T10:45:54.902Z,98.24
2022-10-23T10:46:54.865Z,98.62
2022-10-23T10:47:54.820Z,98.43
2022-10-23T10:48:54.756Z,98.43
2022-10-23T10:49:54.701Z,98.53
2022-10-23T10:50:54.651Z,98.14
2022-10-23T10:51:54.601Z,98.14
2022-10-23T10:52:54.572Z,97.09
2022-10-23T10:53:54.503Z,97.19
2022-10-23T10:54:54.453Z,97.86
2022-10-23T10:55:54.404Z,97.76
2022-10-23T10:56:54.354Z,96.80
2022-10-23T10:57:56.824Z,97.86
2022-10-23T10:58:54.255Z,97.28
2022-10-23T10:59:54.213Z,97.66
2022-10-23T11:00:54.199Z,97.56
2022-10-23T11:01:55.117Z,97.56
2022-10-23T11:02:54.069Z,97.71
2022-10-23T11:03:54.005Z,97.71
2022-10-23T11:04:53.955Z,97.09
2022-10-23T11:05:53.961Z,96.18
2022-10-23T11:06:53.869Z,95.79
2022-10-23T11:07:53.804Z,96.22
2022-10-23T11:08:57.621Z,96.61
2022-10-23T11:09:53.707Z,97.19
2022-10-23T11:10:53.656Z,97.19
2022-10-23T11:11:53.623Z,96.22
2022-10-23T11:12:53.555Z,96.42
2022-10-23T11:13:53.510Z,97.14
2022-10-23T11:14:53.475Z,96.66
2022-10-23T11:15:53.414Z,96.32
2022-10-23T11:16:53.376Z,96.27
2022-10-23T11:17:53.308Z,96.47
2022-10-23T11:18:53.258Z,95.60
2022-10-23T11:19:53.218Z,95.03
2022-10-23T11:20:53.164Z,95.98
2022-10-23T11:21:53.123Z,95.89
2022-10-23T11:22:53.099Z,94.93
2022-10-23T11:23:53.011Z,94.74
2022-10-23T11:24:54.578Z,94.54
2022-10-23T11:25:52.929Z,94.07
2022-10-23T11:26:52.863Z,93.97
2022-10-23T11:27:52.816Z,94.54
2022-10-23T11:28:52.763Z,94.64
2022-10-23T11:29:52.713Z,93.87
2022-10-23T11:30:52.678Z,93.05
2022-10-23T11:31:52.616Z,92.77
2022-10-23T11:32:52.568Z,92.29
2022-10-23T11:33:52.533Z,92.38
2022-10-23T11:34:52.491Z,91.90
2022-10-23T11:35:52.415Z,91.61
2022-10-23T11:36:53.092Z,92.29
2022-10-23T11:37:52.320Z,91.52
2022-10-23T11:38:52.282Z,91.61
2022-10-23T11:39:52.235Z,92.19
2022-10-23T11:40:52.203Z,92.19
2022-10-23T11:41:52.126Z,91.81
2022-10-23T11:42:52.071Z,92.05
2022-10-23T11:43:52.023Z,91.47
2022-10-23T11:44:51.993Z,92.82
2022-10-23T11:45:51.921Z,92.63
2022-10-23T11:46:51.872Z,93.20
2022-10-23T11:47:51.839Z,94.16
2022-10-23T11:48:51.776Z,94.07
2022-10-23T11:49:51.726Z,93.49
2022-10-23T11:50:51.676Z,92.91
2022-10-23T11:51:51.644Z,92.72
2022-10-23T11:53:09.283Z,92.72
2022-10-23T11:53:51.527Z,93.20
2022-10-23T11:54:51.481Z,94.07
2022-10-23T11:55:51.441Z,94.64
2022-10-23T11:56:51.380Z,93.87
2022-10-23T11:57:51.330Z,94.16
2022-10-23T11:58:51.277Z,94.54
2022-10-23T11:59:51.248Z,94.07
2022-10-23T12:00:51.183Z,94.83
2022-10-23T12:01:51.292Z,95.41
2022-10-23T12:02:53.550Z,95.12
2022-10-23T12:03:51.034Z,95.89
2022-10-23T12:04:50.994Z,96.18
2022-10-23T12:05:50.962Z,95.70
2022-10-23T12:06:50.901Z,94.64
2022-10-23T12:07:52.052Z,94.45
2022-10-23T12:08:50.786Z,94.35
2022-10-23T12:09:50.736Z,94.45
2022-10-23T12:10:50.684Z,94.07
2022-10-23T12:11:50.634Z,94.74
2022-10-23T12:12:50.599Z,94.16
2022-10-23T12:13:50.537Z,93.87
2022-10-23T12:14:50.483Z,93.87
2022-10-23T12:15:50.436Z,93.49
2022-10-23T12:16:50.391Z,94.35
2022-10-23T12:17:50.360Z,94.07
2022-10-23T12:18:50.289Z,94.64
2022-10-23T12:19:50.237Z,94.74
2022-10-23T12:20:50.188Z,94.54
2022-10-23T12:21:50.155Z,95.26
2022-10-23T12:22:50.088Z,94.45
2022-10-23T12:23:50.041Z,94.79
2022-10-23T12:24:49.991Z,94.40
2022-10-23T12:25:49.966Z,94.98
2022-10-23T12:26:49.892Z,95.07
2022-10-23T12:27:49.839Z,95.55
2022-10-23T12:28:49.796Z,95.84
2022-10-23T12:29:49.903Z,95.84
2022-10-23T12:30:49.738Z,95.26
2022-10-23T12:31:49.645Z,95.36
2022-10-23T12:32:49.610Z,96.61
2022-10-23T12:33:49.559Z,96.32
2022-10-23T12:34:49.490Z,95.94
2022-10-23T12:35:50.168Z,95.46
2022-10-23T12:36:49.402Z,95.46
2022-10-23T12:37:49.342Z,95.46
2022-10-23T12:38:49.291Z,95.07
2022-10-23T12:39:49.244Z,95.94
2022-10-23T12:40:49.194Z,94.98
2022-10-23T12:41:49.156Z,95.46
2022-10-23T12:42:49.093Z,94.79
2022-10-23T12:43:49.042Z,95.46
2022-10-23T12:44:48.992Z,95.46
2022-10-23T12:45:48.940Z,94.88
2022-10-23T12:46:48.904Z,95.55
2022-10-23T12:47:48.844Z,95.36
2022-10-23T12:48:48.793Z,95.36
2022-10-23T12:49:48.742Z,95.94
2022-10-23T12:50:48.694Z,95.75
2022-10-23T12:51:48.668Z,96.03
2022-10-23T12:52:48.610Z,95.55
2022-10-23T12:53:48.542Z,95.55
2022-10-23T12:54:48.493Z,95.36
2022-10-23T12:55:48.522Z,95.94